Time;durP1;ratioP1;P1;durP2;ratioP2;P2;SDS_P1;SDS_P2;PMS_P1;PMS_P2;Temp;Humidity;BMP_temperature;BMP_pressure;BME280_temperature;BME280_humidity;BME280_pressure;Samples;Min_cycle;Max_cycle;Signal;HPM_P1;HPM_P2
2022/11/18 00:02:32;;;;;;;;;;;6.50;99.90;;;;;;12601512;28;20369;-38
2022/11/18 00:08:34;;;;;;;;;;;6.50;99.90;;;;;;12614274;28;20007;-39
2022/11/18 00:14:35;;;;;;;;;;;6.50;99.90;;;;;;12614425;28;19931;-40
2022/11/18 00:20:38;;;;;;;;;;;6.40;99.90;;;;;;12618342;28;20381;-39
2022/11/18 00:26:39;;;;;;;;;;;6.40;99.90;;;;;;12594714;28;19928;-40
2022/11/18 00:32:41;;;;;;;;;;;6.20;99.90;;;;;;12592438;28;19967;-39
2022/11/18 00:38:43;;;;;;;;;;;6.20;99.90;;;;;;12606598;28;19933;-39
2022/11/18 00:44:44;;;;;;;;;;;6.20;99.90;;;;;;12597401;28;19935;-40
2022/11/18 00:50:50;;;;;;;;;;;6.00;99.90;;;;;;12611624;28;19953;-39
2022/11/18 00:56:52;;;;;;;;;;;6.00;99.90;;;;;;12600603;28;19977;-39
2022/11/18 01:02:53;;;;;;;;;;;6.00;99.90;;;;;;12604184;28;19973;-39
2022/11/18 01:08:55;;;;;;;;;;;6.10;99.90;;;;;;12598156;28;19933;-39
2022/11/18 01:14:57;;;;;;;;;;;6.00;99.90;;;;;;12607673;28;19928;-39
2022/11/18 01:21:02;;;;;;;;;;;6.10;99.90;;;;;;12603825;28;19931;-40
2022/11/18 01:27:04;;;;;;;;;;;6.10;99.90;;;;;;12620313;28;19939;-40
2022/11/18 01:33:06;;;;;;;;;;;6.20;99.90;;;;;;12616894;28;20014;-39
2022/11/18 01:39:08;;;;;;;;;;;6.30;99.90;;;;;;12609754;28;20380;-39
2022/11/18 01:45:13;;;;;;;;;;;6.30;99.90;;;;;;12618789;28;19931;-39
2022/11/18 01:51:15;;;;;;;;;;;6.40;99.90;;;;;;12612738;28;19924;-39
2022/11/18 01:57:21;;;;;;;;;;;6.50;99.90;;;;;;12601410;28;19928;-39
2022/11/18 02:03:24;;;;;;;;;;;6.60;99.90;;;;;;12603129;28;20280;-39
2022/11/18 02:09:25;;;;;;;;;;;6.70;99.90;;;;;;12603748;28;19924;-39
2022/11/18 02:15:40;;;;;;;;;;;6.80;99.90;;;;;;12603294;28;19932;-39
2022/11/18 02:21:57;;;;;;;;;;;6.80;99.90;;;;;;12613370;28;19932;-39
2022/11/18 02:28:07;;;;;;;;;;;6.80;99.90;;;;;;12617704;28;19925;-40
2022/11/18 02:34:24;;;;;;;;;;;6.80;99.90;;;;;;12612617;28;19931;-39
2022/11/18 02:40:30;;;;;;;;;;;6.80;99.90;;;;;;12606952;28;19931;-39
2022/11/18 02:46:34;;;;;;;;;;;6.80;99.90;;;;;;12597484;28;19928;-39
2022/11/18 02:52:37;;;;;;;;;;;6.80;99.90;;;;;;12602768;28;19928;-39
2022/11/18 02:58:39;;;;;;;;;;;6.80;99.90;;;;;;12602338;28;19935;-39
2022/11/18 03:04:41;;;;;;;;;;;6.80;99.90;;;;;;12621237;28;20368;-39
2022/11/18 03:10:48;;;;;;;;;;;6.80;99.90;;;;;;12618657;28;19930;-39
2022/11/18 03:16:59;;;;;;;;;;;6.80;99.90;;;;;;12616930;28;19928;-40
2022/11/18 03:23:09;;;;;;;;;;;6.80;99.90;;;;;;12635760;28;19924;-39
2022/11/18 03:29:14;;;;;;;;;;;6.70;99.90;;;;;;12619966;28;19925;-39
2022/11/18 03:35:19;;;;;;;;;;;6.70;99.90;;;;;;12621171;28;19928;-40
2022/11/18 03:41:23;;;;;;;;;;;6.80;99.90;;;;;;12619551;28;19932;-39
2022/11/18 03:47:27;;;;;;;;;;;6.70;99.90;;;;;;12623751;28;19924;-39
2022/11/18 03:53:30;;;;;;;;;;;6.70;99.90;;;;;;12615495;28;19928;-39
2022/11/18 03:59:34;;;;;;;;;;;6.70;99.90;;;;;;12613509;28;19935;-39
2022/11/18 04:05:40;;;;;;;;;;;6.60;99.90;;;;;;12628404;28;19959;-39
2022/11/18 04:12:03;;;;;;;;;;;6.60;99.90;;;;;;12606625;28;20292;-40
2022/11/18 04:18:04;;;;;;;;;;;6.60;99.90;;;;;;12622213;28;19928;-40
2022/11/18 04:24:06;;;;;;;;;;;6.60;99.90;;;;;;12611578;28;19966;-39
2022/11/18 04:30:08;;;;;;;;;;;6.60;99.90;;;;;;12601877;28;19936;-39
2022/11/18 04:36:10;;;;;;;;;;;6.60;99.90;;;;;;12609732;28;20402;-39
2022/11/18 04:42:12;;;;;;;;;;;6.60;99.90;;;;;;12610019;28;20349;-39
2022/11/18 04:48:13;;;;;;;;;;;6.60;99.90;;;;;;12602896;28;19946;-39
2022/11/18 04:54:15;;;;;;;;;;;6.60;99.90;;;;;;12595655;28;19931;-39
2022/11/18 05:00:17;;;;;;;;;;;6.60;99.90;;;;;;12593440;28;20391;-39
2022/11/18 05:06:19;;;;;;;;;;;6.60;99.90;;;;;;12617111;28;19932;-39
2022/11/18 05:18:41;;;;;;;;;;;6.50;99.90;;;;;;12615051;28;20716;-39
2022/11/18 05:24:43;;;;;;;;;;;6.50;99.90;;;;;;12623851;28;19936;-39
2022/11/18 05:30:44;;;;;;;;;;;6.50;99.90;;;;;;12612804;28;20311;-39
2022/11/18 05:36:46;;;;;;;;;;;6.40;99.90;;;;;;12607363;28;19931;-39
2022/11/18 05:49:08;;;;;;;;;;;6.30;99.90;;;;;;12607301;28;19924;-39
2022/11/18 05:55:11;;;;;;;;;;;6.20;99.90;;;;;;12605324;28;19936;-39
2022/11/18 06:01:15;;;;;;;;;;;6.20;99.90;;;;;;12600168;28;20333;-39
2022/11/18 06:07:18;;;;;;;;;;;6.30;99.90;;;;;;12614462;28;20419;-39
2022/11/18 06:13:33;;;;;;;;;;;6.30;99.90;;;;;;12600290;28;20376;-39
2022/11/18 06:19:35;;;;;;;;;;;6.20;99.90;;;;;;12609461;28;19928;-39
2022/11/18 06:25:38;;;;;;;;;;;6.10;99.90;;;;;;12608746;28;19937;-39
2022/11/18 06:31:40;;;;;;;;;;;6.00;99.90;;;;;;12590040;28;19924;-39
2022/11/18 06:37:42;;;;;;;;;;;6.00;99.90;;;;;;12538793;28;19931;-39
2022/11/18 06:43:43;;;;;;;;;;;5.90;99.90;;;;;;12548982;28;20249;-39
2022/11/18 06:49:45;;;;;;;;;;;5.90;99.90;;;;;;12559569;28;19948;-39
2022/11/18 06:55:47;;;;;;;;;;;6.00;99.90;;;;;;12542170;28;19925;-39
2022/11/18 07:01:49;;;;;;;;;;;5.90;99.90;;;;;;12565521;28;20430;-39
2022/11/18 07:07:50;;;;;;;;;;;5.80;99.90;;;;;;12574360;28;19936;-38
2022/11/18 07:13:53;;;;;;;;;;;5.80;99.90;;;;;;12564182;28;20057;-39
2022/11/18 07:19:54;;;;;;;;;;;5.80;99.90;;;;;;12570901;28;19925;-39
2022/11/18 07:25:56;;;;;;;;;;;5.80;99.90;;;;;;12567367;28;20281;-39
2022/11/18 07:31:58;;;;;;;;;;;5.70;99.90;;;;;;12554492;28;19935;-39
2022/11/18 07:37:59;;;;;;;;;;;5.90;99.90;;;;;;12606305;28;20299;-38
2022/11/18 07:44:02;;;;;;;;;;;5.90;99.90;;;;;;12612420;28;19924;-39
2022/11/18 07:50:04;;;;;;;;;;;5.80;99.90;;;;;;12585310;28;20464;-39
2022/11/18 07:56:07;;;;;;;;;;;5.90;99.90;;;;;;12568933;28;19924;-39
2022/11/18 08:02:11;;;;;;;;;;;5.80;99.90;;;;;;12596052;28;19928;-39
2022/11/18 08:08:13;;;;;;;;;;;5.80;99.90;;;;;;12627882;28;19928;-39
2022/11/18 08:14:15;;;;;;;;;;;5.80;99.90;;;;;;12616349;28;19935;-39
2022/11/18 08:20:17;;;;;;;;;;;5.80;99.90;;;;;;12606632;28;19924;-39
2022/11/18 08:26:19;;;;;;;;;;;5.80;99.90;;;;;;12617511;28;19928;-37
2022/11/18 08:32:21;;;;;;;;;;;5.80;99.90;;;;;;12596029;28;19928;-37
2022/11/18 08:38:22;;;;;;;;;;;5.90;99.90;;;;;;12620691;28;19925;-37
2022/11/18 08:44:24;;;;;;;;;;;5.90;99.90;;;;;;12603773;28;19924;-37
2022/11/18 08:50:26;;;;;;;;;;;5.90;99.90;;;;;;12597342;28;19961;-37
2022/11/18 08:56:27;;;;;;;;;;;5.80;99.90;;;;;;12609123;28;20272;-37
2022/11/18 09:02:29;;;;;;;;;;;5.70;99.90;;;;;;12588709;28;19924;-37
2022/11/18 09:08:31;;;;;;;;;;;5.70;99.90;;;;;;12624010;28;19947;-37
2022/11/18 09:14:33;;;;;;;;;;;5.70;99.90;;;;;;12604306;28;19928;-37
2022/11/18 09:20:59;;;;;;;;;;;5.70;99.90;;;;;;12616805;28;19924;-37
2022/11/18 09:27:02;;;;;;;;;;;5.50;99.90;;;;;;12622785;28;19924;-37
2022/11/18 09:33:05;;;;;;;;;;;5.50;99.90;;;;;;12615597;28;19931;-37
2022/11/18 09:39:08;;;;;;;;;;;5.50;99.90;;;;;;12604354;28;20364;-37
2022/11/18 09:45:09;;;;;;;;;;;5.50;99.90;;;;;;12611767;28;19928;-37
2022/11/18 09:51:16;;;;;;;;;;;5.50;99.90;;;;;;12584553;28;19962;-37
2022/11/18 09:57:19;;;;;;;;;;;5.30;99.90;;;;;;12608485;28;19928;-37
2022/11/18 10:03:28;;;;;;;;;;;5.30;99.90;;;;;;12599016;28;20283;-37
2022/11/18 10:09:30;;;;;;;;;;;5.30;99.90;;;;;;12615423;28;19932;-37
2022/11/18 10:15:37;;;;;;;;;;;5.40;99.90;;;;;;12625667;28;19932;-37
2022/11/18 10:21:50;;;;;;;;;;;5.20;99.90;;;;;;12593448;28;19940;-37
2022/11/18 10:27:54;;;;;;;;;;;5.30;99.90;;;;;;12609888;28;19957;-37
2022/11/18 10:34:00;;;;;;;;;;;5.30;99.90;;;;;;12615416;28;19924;-38
2022/11/18 10:40:02;;;;;;;;;;;5.30;99.90;;;;;;12626920;28;19928;-37
2022/11/18 10:46:15;;;;;;;;;;;5.20;99.90;;;;;;12619404;28;20017;-37
2022/11/18 10:52:17;;;;;;;;;;;5.20;99.90;;;;;;12615038;28;20026;-37
2022/11/18 10:58:24;;;;;;;;;;;5.10;99.90;;;;;;12611426;28;19928;-37
2022/11/18 11:04:27;;;;;;;;;;;5.10;99.90;;;;;;12620297;28;19924;-37
2022/11/18 11:10:29;;;;;;;;;;;5.10;99.90;;;;;;12619109;28;19932;-37
2022/11/18 11:16:35;;;;;;;;;;;5.00;99.90;;;;;;12620335;28;19975;-37
2022/11/18 11:22:36;;;;;;;;;;;4.90;99.90;;;;;;12614912;28;20013;-37
2022/11/18 11:28:56;;;;;;;;;;;4.70;99.90;;;;;;12616989;28;19928;-37
2022/11/18 11:35:06;;;;;;;;;;;4.70;99.90;;;;;;12622947;28;19924;-37
2022/11/18 11:41:26;;;;;;;;;;;4.60;99.90;;;;;;12620659;28;19929;-36
2022/11/18 11:47:48;;;;;;;;;;;4.60;99.90;;;;;;12611759;28;19925;-37
2022/11/18 11:53:49;;;;;;;;;;;4.60;99.90;;;;;;12608797;28;19928;-37
2022/11/18 11:59:52;;;;;;;;;;;4.80;99.90;;;;;;12593731;28;20032;-39
2022/11/18 12:05:55;;;;;;;;;;;4.80;99.90;;;;;;12617458;28;20515;-37
2022/11/18 12:12:02;;;;;;;;;;;4.60;99.90;;;;;;12621461;28;19931;-37
2022/11/18 12:18:11;;;;;;;;;;;4.50;99.90;;;;;;12619287;28;19938;-37
2022/11/18 12:24:16;;;;;;;;;;;4.50;99.90;;;;;;12610757;28;19928;-36
2022/11/18 12:30:17;;;;;;;;;;;4.50;99.90;;;;;;12616179;28;19932;-37
2022/11/18 12:36:31;;;;;;;;;;;4.40;99.90;;;;;;12616918;28;19932;-37
2022/11/18 12:49:21;;;;;;;;;;;4.40;99.90;;;;;;12600283;28;19924;-37
2022/11/18 12:55:24;;;;;;;;;;;4.20;99.90;;;;;;12608042;28;19924;-36
2022/11/18 13:01:27;;;;;;;;;;;4.20;99.90;;;;;;12611343;28;19924;-36
2022/11/18 13:17:50;;;;;;;;;;;4.00;99.90;;;;;;12614309;28;19924;-36
2022/11/18 13:20:34;;;;;;;;;;;4.10;99.90;;;;;;12616217;28;19969;-36
2022/11/18 13:26:39;;;;;;;;;;;4.00;99.90;;;;;;12613664;28;19935;-37
2022/11/18 13:32:44;;;;;;;;;;;4.00;99.90;;;;;;12613717;28;19999;-36
2022/11/18 13:38:56;;;;;;;;;;;3.80;99.90;;;;;;12614295;28;19924;-37
2022/11/18 13:44:59;;;;;;;;;;;3.60;99.90;;;;;;12602882;28;19924;-37
2022/11/18 13:51:01;;;;;;;;;;;3.80;99.90;;;;;;12611998;28;19928;-37
2022/11/18 13:57:03;;;;;;;;;;;3.60;99.90;;;;;;12604803;28;19928;-37
2022/11/18 14:03:23;;;;;;;;;;;3.70;99.90;;;;;;12622699;28;19931;-37
2022/11/18 14:09:26;;;;;;;;;;;3.60;99.90;;;;;;12619623;28;20065;-36
2022/11/18 14:15:30;;;;;;;;;;;3.50;99.90;;;;;;12605808;28;19928;-37
2022/11/18 14:21:33;;;;;;;;;;;3.40;99.90;;;;;;12608407;28;19946;-37
2022/11/18 14:27:37;;;;;;;;;;;3.20;99.90;;;;;;12594499;28;19937;-37
2022/11/18 14:33:39;;;;;;;;;;;3.20;99.90;;;;;;12600822;28;19924;-37
2022/11/18 14:39:40;;;;;;;;;;;3.10;99.90;;;;;;12597753;28;19935;-37
2022/11/18 14:45:42;;;;;;;;;;;3.20;99.90;;;;;;12602243;28;20407;-36
2022/11/18 14:51:44;;;;;;;;;;;3.10;99.90;;;;;;12611878;28;20333;-37
2022/11/18 14:57:45;;;;;;;;;;;3.10;99.90;;;;;;12601803;28;19935;-37
2022/11/18 15:03:47;;;;;;;;;;;3.00;99.90;;;;;;12605890;28;19935;-37
2022/11/18 15:09:49;;;;;;;;;;;3.00;99.90;;;;;;12615977;28;20399;-37
2022/11/18 15:15:51;;;;;;;;;;;2.90;99.90;;;;;;12613542;28;19934;-37
2022/11/18 15:21:53;;;;;;;;;;;2.90;99.90;;;;;;12620288;28;20291;-36
2022/11/18 15:27:54;;;;;;;;;;;3.00;99.90;;;;;;12615485;28;19925;-37
2022/11/18 15:33:56;;;;;;;;;;;2.90;99.90;;;;;;12609158;28;19936;-37
2022/11/18 15:40:04;;;;;;;;;;;2.80;99.90;;;;;;12558721;28;19932;-37
2022/11/18 15:46:08;;;;;;;;;;;2.60;99.90;;;;;;12533708;28;20010;-37
2022/11/18 15:52:11;;;;;;;;;;;2.50;99.90;;;;;;12566776;28;19924;-37
2022/11/18 15:58:13;;;;;;;;;;;2.60;99.90;;;;;;12569640;28;19925;-37
2022/11/18 16:04:18;;;;;;;;;;;2.40;99.90;;;;;;12564337;28;19929;-36
2022/11/18 16:16:41;;;;;;;;;;;2.30;99.90;;;;;;12574382;28;19933;-37
2022/11/18 16:22:43;;;;;;;;;;;2.30;99.90;;;;;;12569085;28;19928;-38
2022/11/18 16:28:45;;;;;;;;;;;2.20;99.90;;;;;;12562099;28;19924;-37
2022/11/18 16:34:47;;;;;;;;;;;2.30;99.90;;;;;;12565123;28;20015;-37
2022/11/18 16:40:58;;;;;;;;;;;2.00;99.90;;;;;;12596816;28;19978;-37
2022/11/18 16:47:00;;;;;;;;;;;2.00;99.90;;;;;;12603783;28;19931;-37
2022/11/18 16:53:01;;;;;;;;;;;1.70;99.90;;;;;;12614779;28;19924;-37
2022/11/18 16:59:04;;;;;;;;;;;1.90;99.90;;;;;;12615060;28;19925;-37
2022/11/18 17:05:06;;;;;;;;;;;1.80;99.90;;;;;;12614831;28;19977;-37
2022/11/18 17:11:09;;;;;;;;;;;1.60;99.90;;;;;;12619699;28;19932;-37
2022/11/18 17:17:12;;;;;;;;;;;1.50;99.90;;;;;;12619352;28;20289;-37
2022/11/18 17:23:14;;;;;;;;;;;1.50;99.90;;;;;;12613290;28;20376;-36
2022/11/18 17:29:16;;;;;;;;;;;1.40;99.90;;;;;;12612996;28;22366;-36
2022/11/18 17:35:19;;;;;;;;;;;1.30;99.90;;;;;;12613094;28;19924;-37
2022/11/18 17:47:41;;;;;;;;;;;1.20;99.90;;;;;;12608138;28;19928;-36
2022/11/18 17:53:43;;;;;;;;;;;1.20;99.90;;;;;;12618746;28;20310;-37
2022/11/18 17:59:45;;;;;;;;;;;1.00;99.90;;;;;;12604260;28;19925;-37
2022/11/18 18:05:47;;;;;;;;;;;1.00;99.90;;;;;;12595996;28;19928;-38
2022/11/18 18:11:49;;;;;;;;;;;1.00;99.90;;;;;;12612931;28;20347;-37
2022/11/18 18:17:50;;;;;;;;;;;1.00;99.90;;;;;;12611346;28;19932;-37
2022/11/18 18:23:52;;;;;;;;;;;1.00;99.90;;;;;;12598171;28;19924;-36
2022/11/18 18:29:54;;;;;;;;;;;1.00;99.90;;;;;;12605843;28;20296;-37
2022/11/18 18:35:57;;;;;;;;;;;1.00;99.90;;;;;;12609288;28;19936;-38
2022/11/18 18:41:59;;;;;;;;;;;0.90;99.90;;;;;;12598237;28;19932;-37
2022/11/18 18:48:02;;;;;;;;;;;0.90;99.90;;;;;;12609619;28;19928;-37
2022/11/18 18:54:04;;;;;;;;;;;1.00;99.90;;;;;;12615291;28;19932;-36
2022/11/18 19:00:06;;;;;;;;;;;0.90;99.90;;;;;;12615790;28;19932;-37
2022/11/18 19:06:12;;;;;;;;;;;0.90;99.90;;;;;;12596053;28;19951;-37
2022/11/18 19:12:42;;;;;;;;;;;0.90;99.90;;;;;;12619893;28;19924;-37
2022/11/18 19:18:44;;;;;;;;;;;1.00;99.90;;;;;;12621702;28;20380;-37
2022/11/18 19:24:45;;;;;;;;;;;0.90;99.90;;;;;;12608880;28;19932;-37
2022/11/18 19:30:51;;;;;;;;;;;0.80;99.90;;;;;;12627878;28;19935;-36
2022/11/18 19:36:53;;;;;;;;;;;0.90;99.90;;;;;;12612789;28;19924;-37
2022/11/18 19:42:55;;;;;;;;;;;0.80;99.90;;;;;;12608897;28;20089;-37
2022/11/18 19:48:57;;;;;;;;;;;0.90;99.90;;;;;;12619093;28;19928;-37
2022/11/18 19:54:58;;;;;;;;;;;0.80;99.90;;;;;;12617212;28;19924;-37
2022/11/18 20:01:16;;;;;;;;;;;0.80;99.90;;;;;;12604820;28;19928;-37
2022/11/18 20:07:18;;;;;;;;;;;0.80;99.90;;;;;;12611371;28;19977;-36
2022/11/18 20:13:20;;;;;;;;;;;0.80;99.90;;;;;;12623408;28;19928;-37
2022/11/18 20:19:21;;;;;;;;;;;0.70;99.90;;;;;;12612452;28;20019;-36
2022/11/18 20:25:24;;;;;;;;;;;0.70;99.90;;;;;;12599981;28;20279;-36
2022/11/18 20:31:26;;;;;;;;;;;0.70;99.90;;;;;;12617282;28;19927;-36
2022/11/18 20:37:28;;;;;;;;;;;0.70;99.90;;;;;;12610341;28;19973;-36
2022/11/18 20:43:32;;;;;;;;;;;0.70;99.90;;;;;;12612749;28;19959;-37
2022/11/18 20:49:34;;;;;;;;;;;0.60;99.90;;;;;;12611254;28;19925;-37
2022/11/18 20:55:39;;;;;;;;;;;0.70;99.90;;;;;;12611967;28;20373;-37
2022/11/18 21:01:41;;;;;;;;;;;0.50;99.90;;;;;;12615458;28;19928;-36
2022/11/18 21:07:42;;;;;;;;;;;0.50;99.90;;;;;;12615147;28;19931;-36
2022/11/18 21:21:43;;;;;;;;;;;0.60;99.90;;;;;;12619773;28;19934;-36
2022/11/18 21:26:27;;;;;;;;;;;0.60;99.90;;;;;;12559298;28;19934;-37
2022/11/18 21:32:29;;;;;;;;;;;0.60;99.90;;;;;;12594434;28;19932;-37
2022/11/18 21:38:31;;;;;;;;;;;0.60;99.90;;;;;;12600096;28;19928;-37
2022/11/18 21:44:33;;;;;;;;;;;0.50;99.90;;;;;;12601387;28;19925;-36
2022/11/18 21:50:36;;;;;;;;;;;0.60;99.90;;;;;;12608266;28;19935;-37
2022/11/18 21:56:38;;;;;;;;;;;0.40;99.90;;;;;;12616142;28;19999;-37
2022/11/18 22:02:40;;;;;;;;;;;0.50;99.90;;;;;;12609282;28;19954;-36
2022/11/18 22:08:42;;;;;;;;;;;0.50;99.90;;;;;;12616771;28;19931;-37
2022/11/18 22:14:43;;;;;;;;;;;0.60;99.90;;;;;;12614422;28;20021;-37
2022/11/18 22:20:45;;;;;;;;;;;0.60;99.90;;;;;;12604066;28;20017;-37
2022/11/18 22:26:47;;;;;;;;;;;0.80;99.90;;;;;;12604564;28;19928;-37
2022/11/18 22:32:49;;;;;;;;;;;0.70;99.90;;;;;;12612222;28;20316;-37
2022/11/18 22:38:50;;;;;;;;;;;0.50;99.90;;;;;;12610099;28;19935;-37
2022/11/18 22:44:52;;;;;;;;;;;0.50;99.90;;;;;;12603156;28;19928;-36
2022/11/18 22:50:57;;;;;;;;;;;0.40;99.90;;;;;;12606193;28;19928;-37
2022/11/18 22:56:58;;;;;;;;;;;0.40;99.90;;;;;;12595734;28;19928;-38
2022/11/18 23:03:00;;;;;;;;;;;0.50;99.90;;;;;;12594978;28;20402;-36
2022/11/18 23:09:02;;;;;;;;;;;0.40;99.90;;;;;;12618764;28;19943;-37
2022/11/18 23:15:04;;;;;;;;;;;0.40;99.90;;;;;;12612807;28;19924;-37
2022/11/18 23:21:05;;;;;;;;;;;0.40;99.90;;;;;;12609810;28;20020;-37
2022/11/18 23:27:07;;;;;;;;;;;0.50;99.90;;;;;;12604098;28;19932;-37
2022/11/18 23:33:09;;;;;;;;;;;0.30;99.90;;;;;;12622045;28;19943;-37
2022/11/18 23:39:11;;;;;;;;;;;0.30;99.90;;;;;;12605442;28;20287;-37
2022/11/18 23:45:13;;;;;;;;;;;0.30;99.90;;;;;;12615537;28;20287;-36
2022/11/18 23:51:16;;;;;;;;;;;0.30;99.90;;;;;;12611966;28;19924;-37
2022/11/18 23:57:18;;;;;;;;;;;0.40;99.90;;;;;;12618251;28;19928;-37
